sensor_id;sensor_type;location;lat;lon;timestamp;P1;durP1;ratioP1;P2;durP2;ratioP2
45642;SDS011;31358;46.008;11.144;2022-09-13T00:01:44;5.75;;;2.28;;
45642;SDS011;31358;46.008;11.144;2022-09-13T00:04:10;4.88;;;1.50;;
45642;SDS011;31358;46.008;11.144;2022-09-13T00:06:36;4.82;;;1.70;;
45642;SDS011;31358;46.008;11.144;2022-09-13T00:09:01;3.10;;;1.67;;
45642;SDS011;31358;46.008;11.144;2022-09-13T00:11:28;3.40;;;1.95;;
45642;SDS011;31358;46.008;11.144;2022-09-13T00:13:55;4.82;;;1.63;;
45642;SDS011;31358;46.008;11.144;2022-09-13T00:16:23;3.88;;;2.05;;
45642;SDS011;31358;46.008;11.144;2022-09-13T00:18:51;4.45;;;1.63;;
45642;SDS011;31358;46.008;11.144;2022-09-13T00:21:19;6.55;;;1.75;;
45642;SDS011;31358;46.008;11.144;2022-09-13T00:23:46;3.97;;;1.50;;
45642;SDS011;31358;46.008;11.144;2022-09-13T00:26:15;4.88;;;1.60;;
45642;SDS011;31358;46.008;11.144;2022-09-13T00:28:43;3.03;;;1.63;;
45642;SDS011;31358;46.008;11.144;2022-09-13T00:31:09;4.70;;;1.80;;
45642;SDS011;31358;46.008;11.144;2022-09-13T00:33:35;5.50;;;1.75;;
45642;SDS011;31358;46.008;11.144;2022-09-13T00:36:08;3.92;;;1.98;;
45642;SDS011;31358;46.008;11.144;2022-09-13T00:38:35;4.07;;;2.30;;
45642;SDS011;31358;46.008;11.144;2022-09-13T00:41:03;2.83;;;1.75;;
45642;SDS011;31358;46.008;11.144;2022-09-13T00:43:49;3.72;;;2.17;;
45642;SDS011;31358;46.008;11.144;2022-09-13T00:48:52;3.28;;;1.83;;
45642;SDS011;31358;46.008;11.144;2022-09-13T00:51:21;4.68;;;1.73;;
45642;SDS011;31358;46.008;11.144;2022-09-13T00:53:47;4.90;;;1.88;;
45642;SDS011;31358;46.008;11.144;2022-09-13T00:56:21;3.67;;;1.90;;
45642;SDS011;31358;46.008;11.144;2022-09-13T00:58:57;3.00;;;1.50;;
45642;SDS011;31358;46.008;11.144;2022-09-13T01:01:28;3.10;;;1.80;;
45642;SDS011;31358;46.008;11.144;2022-09-13T01:04:03;4.65;;;1.65;;
45642;SDS011;31358;46.008;11.144;2022-09-13T01:06:30;3.83;;;2.03;;
45642;SDS011;31358;46.008;11.144;2022-09-13T01:09:00;6.55;;;2.17;;
45642;SDS011;31358;46.008;11.144;2022-09-13T01:11:36;5.43;;;2.00;;
45642;SDS011;31358;46.008;11.144;2022-09-13T01:14:11;6.32;;;2.42;;
45642;SDS011;31358;46.008;11.144;2022-09-13T01:16:37;3.30;;;1.80;;
45642;SDS011;31358;46.008;11.144;2022-09-13T01:19:03;5.35;;;1.58;;
45642;SDS011;31358;46.008;11.144;2022-09-13T01:29:55;3.60;;;1.77;;
45642;SDS011;31358;46.008;11.144;2022-09-13T01:49:25;5.13;;;1.98;;
45642;SDS011;31358;46.008;11.144;2022-09-13T01:52:10;3.38;;;2.05;;
45642;SDS011;31358;46.008;11.144;2022-09-13T01:57:50;4.10;;;1.90;;
45642;SDS011;31358;46.008;11.144;2022-09-13T02:00:40;3.05;;;1.70;;
45642;SDS011;31358;46.008;11.144;2022-09-13T02:03:19;3.97;;;1.60;;
45642;SDS011;31358;46.008;11.144;2022-09-13T02:05:58;4.85;;;1.60;;
45642;SDS011;31358;46.008;11.144;2022-09-13T02:08:37;4.78;;;2.17;;
45642;SDS011;31358;46.008;11.144;2022-09-13T02:11:10;4.10;;;1.67;;
45642;SDS011;31358;46.008;11.144;2022-09-13T02:13:39;3.58;;;1.65;;
45642;SDS011;31358;46.008;11.144;2022-09-13T02:16:23;2.85;;;1.60;;
45642;SDS011;31358;46.008;11.144;2022-09-13T02:18:58;4.57;;;1.65;;
45642;SDS011;31358;46.008;11.144;2022-09-13T02:21:31;4.15;;;1.55;;
45642;SDS011;31358;46.008;11.144;2022-09-13T02:24:04;3.30;;;1.70;;
45642;SDS011;31358;46.008;11.144;2022-09-13T02:26:32;7.18;;;1.75;;
45642;SDS011;31358;46.008;11.144;2022-09-13T02:29:04;2.65;;;1.40;;
45642;SDS011;31358;46.008;11.144;2022-09-13T02:31:35;3.50;;;1.90;;
45642;SDS011;31358;46.008;11.144;2022-09-13T02:34:19;3.88;;;2.00;;
45642;SDS011;31358;46.008;11.144;2022-09-13T02:36:47;3.53;;;1.80;;
45642;SDS011;31358;46.008;11.144;2022-09-13T02:39:16;3.65;;;1.65;;
45642;SDS011;31358;46.008;11.144;2022-09-13T02:41:55;2.58;;;1.50;;
45642;SDS011;31358;46.008;11.144;2022-09-13T02:44:35;3.17;;;1.40;;
45642;SDS011;31358;46.008;11.144;2022-09-13T02:54:56;3.53;;;1.42;;
45642;SDS011;31358;46.008;11.144;2022-09-13T02:57:47;3.33;;;1.83;;
45642;SDS011;31358;46.008;11.144;2022-09-13T03:00:18;2.50;;;1.42;;
45642;SDS011;31358;46.008;11.144;2022-09-13T03:02:45;3.58;;;1.85;;
45642;SDS011;31358;46.008;11.144;2022-09-13T03:05:12;4.30;;;1.48;;
45642;SDS011;31358;46.008;11.144;2022-09-13T03:07:38;2.45;;;1.38;;
45642;SDS011;31358;46.008;11.144;2022-09-13T03:10:07;3.03;;;1.70;;
45642;SDS011;31358;46.008;11.144;2022-09-13T03:16:14;4.13;;;1.65;;
45642;SDS011;31358;46.008;11.144;2022-09-13T03:29:58;5.90;;;1.65;;
45642;SDS011;31358;46.008;11.144;2022-09-13T03:35:28;4.78;;;1.80;;
45642;SDS011;31358;46.008;11.144;2022-09-13T03:38:10;2.83;;;1.48;;
45642;SDS011;31358;46.008;11.144;2022-09-13T03:40:51;2.80;;;1.53;;
45642;SDS011;31358;46.008;11.144;2022-09-13T03:43:35;3.20;;;1.58;;
45642;SDS011;31358;46.008;11.144;2022-09-13T03:46:14;3.03;;;1.27;;
45642;SDS011;31358;46.008;11.144;2022-09-13T03:48:55;3.83;;;1.50;;
45642;SDS011;31358;46.008;11.144;2022-09-13T03:51:24;2.85;;;1.63;;
45642;SDS011;31358;46.008;11.144;2022-09-13T03:53:52;4.00;;;2.08;;
45642;SDS011;31358;46.008;11.144;2022-09-13T03:56:29;5.07;;;1.67;;
45642;SDS011;31358;46.008;11.144;2022-09-13T03:58:54;2.70;;;1.40;;
45642;SDS011;31358;46.008;11.144;2022-09-13T04:01:21;4.63;;;1.60;;
45642;SDS011;31358;46.008;11.144;2022-09-13T04:03:48;3.00;;;1.58;;
45642;SDS011;31358;46.008;11.144;2022-09-13T04:06:14;2.90;;;1.80;;
45642;SDS011;31358;46.008;11.144;2022-09-13T04:08:40;4.90;;;1.85;;
45642;SDS011;31358;46.008;11.144;2022-09-13T04:11:06;3.25;;;2.08;;
45642;SDS011;31358;46.008;11.144;2022-09-13T04:13:33;3.17;;;1.80;;
45642;SDS011;31358;46.008;11.144;2022-09-13T04:16:01;2.72;;;1.63;;
45642;SDS011;31358;46.008;11.144;2022-09-13T04:18:27;2.38;;;1.25;;
45642;SDS011;31358;46.008;11.144;2022-09-13T04:20:54;2.83;;;1.50;;
45642;SDS011;31358;46.008;11.144;2022-09-13T04:23:24;2.83;;;1.80;;
45642;SDS011;31358;46.008;11.144;2022-09-13T04:25:51;4.32;;;1.50;;
45642;SDS011;31358;46.008;11.144;2022-09-13T04:28:17;4.20;;;1.77;;
45642;SDS011;31358;46.008;11.144;2022-09-13T04:30:44;2.75;;;1.60;;
45642;SDS011;31358;46.008;11.144;2022-09-13T04:33:10;3.50;;;1.65;;
45642;SDS011;31358;46.008;11.144;2022-09-13T04:35:36;4.00;;;2.05;;
45642;SDS011;31358;46.008;11.144;2022-09-13T04:38:03;2.88;;;1.50;;
45642;SDS011;31358;46.008;11.144;2022-09-13T04:40:29;4.57;;;2.00;;
45642;SDS011;31358;46.008;11.144;2022-09-13T04:42:55;3.30;;;1.45;;
45642;SDS011;31358;46.008;11.144;2022-09-13T04:45:20;5.25;;;1.83;;
45642;SDS011;31358;46.008;11.144;2022-09-13T04:47:53;3.80;;;1.50;;
45642;SDS011;31358;46.008;11.144;2022-09-13T04:50:20;6.50;;;2.05;;
45642;SDS011;31358;46.008;11.144;2022-09-13T04:52:46;3.05;;;1.88;;
45642;SDS011;31358;46.008;11.144;2022-09-13T04:55:12;3.67;;;1.90;;
45642;SDS011;31358;46.008;11.144;2022-09-13T04:57:38;5.70;;;1.88;;
45642;SDS011;31358;46.008;11.144;2022-09-13T05:00:05;3.90;;;1.45;;
45642;SDS011;31358;46.008;11.144;2022-09-13T05:02:32;3.28;;;1.67;;
45642;SDS011;31358;46.008;11.144;2022-09-13T05:04:57;4.88;;;1.70;;
45642;SDS011;31358;46.008;11.144;2022-09-13T05:07:23;5.18;;;1.70;;
45642;SDS011;31358;46.008;11.144;2022-09-13T05:09:49;6.00;;;1.58;;
45642;SDS011;31358;46.008;11.144;2022-09-13T05:12:14;2.90;;;1.50;;
45642;SDS011;31358;46.008;11.144;2022-09-13T05:14:40;4.50;;;1.20;;
45642;SDS011;31358;46.008;11.144;2022-09-13T05:17:05;3.00;;;1.40;;
45642;SDS011;31358;46.008;11.144;2022-09-13T05:19:31;2.25;;;1.25;;
45642;SDS011;31358;46.008;11.144;2022-09-13T05:21:57;4.47;;;1.67;;
45642;SDS011;31358;46.008;11.144;2022-09-13T05:24:22;3.58;;;1.58;;
45642;SDS011;31358;46.008;11.144;2022-09-13T05:26:48;3.47;;;1.20;;
45642;SDS011;31358;46.008;11.144;2022-09-13T05:29:14;2.70;;;1.30;;
45642;SDS011;31358;46.008;11.144;2022-09-13T05:31:40;3.38;;;1.45;;
45642;SDS011;31358;46.008;11.144;2022-09-13T05:34:10;6.85;;;1.60;;
45642;SDS011;31358;46.008;11.144;2022-09-13T05:36:38;5.53;;;1.52;;
45642;SDS011;31358;46.008;11.144;2022-09-13T05:39:04;3.35;;;1.45;;
45642;SDS011;31358;46.008;11.144;2022-09-13T05:41:31;2.78;;;1.17;;
45642;SDS011;31358;46.008;11.144;2022-09-13T05:43:57;4.32;;;1.90;;
45642;SDS011;31358;46.008;11.144;2022-09-13T05:46:23;4.63;;;1.55;;
45642;SDS011;31358;46.008;11.144;2022-09-13T05:48:49;5.70;;;1.73;;
45642;SDS011;31358;46.008;11.144;2022-09-13T05:51:15;2.50;;;1.35;;
45642;SDS011;31358;46.008;11.144;2022-09-13T05:53:46;4.68;;;1.45;;
45642;SDS011;31358;46.008;11.144;2022-09-13T05:56:15;3.10;;;1.30;;
45642;SDS011;31358;46.008;11.144;2022-09-13T05:58:46;4.78;;;1.70;;
45642;SDS011;31358;46.008;11.144;2022-09-13T06:01:13;4.80;;;1.55;;
45642;SDS011;31358;46.008;11.144;2022-09-13T06:03:41;4.40;;;1.20;;
45642;SDS011;31358;46.008;11.144;2022-09-13T06:06:06;4.20;;;1.73;;
45642;SDS011;31358;46.008;11.144;2022-09-13T06:08:34;2.03;;;1.13;;
45642;SDS011;31358;46.008;11.144;2022-09-13T06:11:04;7.07;;;1.90;;
45642;SDS011;31358;46.008;11.144;2022-09-13T06:13:31;3.75;;;1.20;;
45642;SDS011;31358;46.008;11.144;2022-09-13T06:15:59;2.67;;;1.30;;
45642;SDS011;31358;46.008;11.144;2022-09-13T06:18:26;2.90;;;1.60;;
45642;SDS011;31358;46.008;11.144;2022-09-13T06:20:59;3.63;;;1.33;;
45642;SDS011;31358;46.008;11.144;2022-09-13T06:23:30;3.60;;;1.83;;
45642;SDS011;31358;46.008;11.144;2022-09-13T06:26:03;3.38;;;1.20;;
45642;SDS011;31358;46.008;11.144;2022-09-13T06:28:30;3.72;;;1.52;;
45642;SDS011;31358;46.008;11.144;2022-09-13T06:31:00;4.30;;;1.35;;
45642;SDS011;31358;46.008;11.144;2022-09-13T06:33:34;4.32;;;1.52;;
45642;SDS011;31358;46.008;11.144;2022-09-13T06:36:01;7.20;;;1.48;;
45642;SDS011;31358;46.008;11.144;2022-09-13T06:38:28;6.00;;;1.67;;
45642;SDS011;31358;46.008;11.144;2022-09-13T06:41:04;3.45;;;1.40;;
45642;SDS011;31358;46.008;11.144;2022-09-13T06:43:33;2.70;;;1.50;;
45642;SDS011;31358;46.008;11.144;2022-09-13T06:46:00;4.03;;;1.33;;
45642;SDS011;31358;46.008;11.144;2022-09-13T06:48:29;2.50;;;1.30;;
45642;SDS011;31358;46.008;11.144;2022-09-13T06:50:59;3.63;;;1.30;;
45642;SDS011;31358;46.008;11.144;2022-09-13T06:53:25;2.95;;;1.40;;
45642;SDS011;31358;46.008;11.144;2022-09-13T06:56:03;3.20;;;1.45;;
45642;SDS011;31358;46.008;11.144;2022-09-13T06:58:31;3.90;;;1.48;;
45642;SDS011;31358;46.008;11.144;2022-09-13T07:01:05;2.78;;;1.25;;
45642;SDS011;31358;46.008;11.144;2022-09-13T07:03:45;3.95;;;1.33;;
45642;SDS011;31358;46.008;11.144;2022-09-13T07:06:39;4.20;;;1.25;;
45642;SDS011;31358;46.008;11.144;2022-09-13T07:09:12;4.75;;;1.48;;
45642;SDS011;31358;46.008;11.144;2022-09-13T07:11:40;4.05;;;1.60;;
45642;SDS011;31358;46.008;11.144;2022-09-13T07:14:06;4.45;;;1.52;;
45642;SDS011;31358;46.008;11.144;2022-09-13T07:16:33;2.92;;;1.52;;
45642;SDS011;31358;46.008;11.144;2022-09-13T07:19:01;3.15;;;1.70;;
45642;SDS011;31358;46.008;11.144;2022-09-13T07:21:30;5.35;;;1.45;;
45642;SDS011;31358;46.008;11.144;2022-09-13T07:23:56;3.65;;;1.95;;
45642;SDS011;31358;46.008;11.144;2022-09-13T07:26:23;4.90;;;1.77;;
45642;SDS011;31358;46.008;11.144;2022-09-13T07:28:52;2.85;;;1.38;;
45642;SDS011;31358;46.008;11.144;2022-09-13T07:33:47;3.83;;;1.45;;
45642;SDS011;31358;46.008;11.144;2022-09-13T07:36:17;4.40;;;1.45;;
45642;SDS011;31358;46.008;11.144;2022-09-13T07:38:43;3.35;;;1.67;;
45642;SDS011;31358;46.008;11.144;2022-09-13T07:41:16;3.97;;;1.30;;
45642;SDS011;31358;46.008;11.144;2022-09-13T07:43:43;4.63;;;1.70;;
45642;SDS011;31358;46.008;11.144;2022-09-13T07:46:10;2.45;;;1.40;;
45642;SDS011;31358;46.008;11.144;2022-09-13T07:48:38;4.55;;;1.63;;
45642;SDS011;31358;46.008;11.144;2022-09-13T07:51:06;4.57;;;2.00;;
45642;SDS011;31358;46.008;11.144;2022-09-13T07:53:40;5.22;;;1.40;;
45642;SDS011;31358;46.008;11.144;2022-09-13T07:56:10;7.43;;;1.52;;
45642;SDS011;31358;46.008;11.144;2022-09-13T07:58:39;3.40;;;1.50;;
45642;SDS011;31358;46.008;11.144;2022-09-13T08:01:10;3.58;;;1.42;;
45642;SDS011;31358;46.008;11.144;2022-09-13T08:03:36;4.13;;;1.25;;
45642;SDS011;31358;46.008;11.144;2022-09-13T08:06:02;2.33;;;1.30;;
45642;SDS011;31358;46.008;11.144;2022-09-13T08:08:29;2.40;;;1.30;;
45642;SDS011;31358;46.008;11.144;2022-09-13T08:10:55;3.78;;;1.40;;
45642;SDS011;31358;46.008;11.144;2022-09-13T08:13:21;3.95;;;1.23;;
45642;SDS011;31358;46.008;11.144;2022-09-13T08:15:47;3.67;;;1.25;;
45642;SDS011;31358;46.008;11.144;2022-09-13T08:18:14;4.78;;;1.60;;
45642;SDS011;31358;46.008;11.144;2022-09-13T08:20:40;3.80;;;1.50;;
45642;SDS011;31358;46.008;11.144;2022-09-13T08:23:06;3.85;;;1.20;;
45642;SDS011;31358;46.008;11.144;2022-09-13T08:25:34;4.20;;;1.55;;
45642;SDS011;31358;46.008;11.144;2022-09-13T08:28:01;7.43;;;1.52;;
45642;SDS011;31358;46.008;11.144;2022-09-13T08:30:35;3.40;;;1.30;;
45642;SDS011;31358;46.008;11.144;2022-09-13T08:33:04;3.00;;;1.48;;
45642;SDS011;31358;46.008;11.144;2022-09-13T08:35:31;3.53;;;1.38;;
45642;SDS011;31358;46.008;11.144;2022-09-13T08:37:58;2.30;;;1.30;;
45642;SDS011;31358;46.008;11.144;2022-09-13T08:40:24;3.20;;;1.40;;
45642;SDS011;31358;46.008;11.144;2022-09-13T08:45:50;4.13;;;1.38;;
45642;SDS011;31358;46.008;11.144;2022-09-13T08:48:35;2.92;;;1.40;;
45642;SDS011;31358;46.008;11.144;2022-09-13T08:51:21;2.40;;;1.27;;
45642;SDS011;31358;46.008;11.144;2022-09-13T08:53:48;5.53;;;1.50;;
45642;SDS011;31358;46.008;11.144;2022-09-13T08:56:28;3.45;;;1.70;;
45642;SDS011;31358;46.008;11.144;2022-09-13T08:59:25;3.40;;;1.42;;
45642;SDS011;31358;46.008;11.144;2022-09-13T09:05:19;2.38;;;1.23;;
45642;SDS011;31358;46.008;11.144;2022-09-13T09:10:28;2.42;;;1.10;;
45642;SDS011;31358;46.008;11.144;2022-09-13T09:13:07;2.63;;;1.13;;
45642;SDS011;31358;46.008;11.144;2022-09-13T09:15:42;4.72;;;1.35;;
45642;SDS011;31358;46.008;11.144;2022-09-13T09:18:18;5.65;;;1.38;;
45642;SDS011;31358;46.008;11.144;2022-09-13T09:20:51;3.17;;;1.48;;
45642;SDS011;31358;46.008;11.144;2022-09-13T09:23:23;2.78;;;1.30;;
45642;SDS011;31358;46.008;11.144;2022-09-13T09:26:12;2.25;;;1.13;;
45642;SDS011;31358;46.008;11.144;2022-09-13T09:28:41;2.78;;;1.27;;
45642;SDS011;31358;46.008;11.144;2022-09-13T09:31:16;6.63;;;1.55;;
45642;SDS011;31358;46.008;11.144;2022-09-13T09:33:54;2.58;;;1.30;;
45642;SDS011;31358;46.008;11.144;2022-09-13T09:36:39;3.63;;;1.20;;
45642;SDS011;31358;46.008;11.144;2022-09-13T09:39:11;3.28;;;1.33;;
45642;SDS011;31358;46.008;11.144;2022-09-13T09:41:40;5.93;;;1.60;;
45642;SDS011;31358;46.008;11.144;2022-09-13T09:44:20;3.47;;;1.20;;
45642;SDS011;31358;46.008;11.144;2022-09-13T09:49:42;2.20;;;1.20;;
45642;SDS011;31358;46.008;11.144;2022-09-13T09:58:02;3.67;;;1.50;;
45642;SDS011;31358;46.008;11.144;2022-09-13T10:00:37;3.10;;;1.15;;
45642;SDS011;31358;46.008;11.144;2022-09-13T10:03:16;5.95;;;1.20;;
45642;SDS011;31358;46.008;11.144;2022-09-13T10:05:44;3.00;;;1.38;;
45642;SDS011;31358;46.008;11.144;2022-09-13T10:08:30;2.88;;;1.40;;
45642;SDS011;31358;46.008;11.144;2022-09-13T10:10:57;3.97;;;1.35;;
45642;SDS011;31358;46.008;11.144;2022-09-13T10:13:24;6.05;;;1.55;;
45642;SDS011;31358;46.008;11.144;2022-09-13T10:18:28;2.60;;;1.42;;
45642;SDS011;31358;46.008;11.144;2022-09-13T10:21:37;5.45;;;1.70;;
45642;SDS011;31358;46.008;11.144;2022-09-13T10:23:44;3.10;;;1.38;;
45642;SDS011;31358;46.008;11.144;2022-09-13T10:26:12;4.72;;;1.88;;
45642;SDS011;31358;46.008;11.144;2022-09-13T10:28:42;2.38;;;1.25;;
45642;SDS011;31358;46.008;11.144;2022-09-13T10:31:25;3.08;;;1.70;;
45642;SDS011;31358;46.008;11.144;2022-09-13T10:34:01;3.63;;;1.50;;
45642;SDS011;31358;46.008;11.144;2022-09-13T10:36:33;2.88;;;1.45;;
45642;SDS011;31358;46.008;11.144;2022-09-13T10:39:00;4.07;;;1.48;;
45642;SDS011;31358;46.008;11.144;2022-09-13T10:41:35;3.53;;;1.40;;
45642;SDS011;31358;46.008;11.144;2022-09-13T10:44:05;1.80;;;1.02;;
45642;SDS011;31358;46.008;11.144;2022-09-13T10:46:46;5.82;;;1.95;;
45642;SDS011;31358;46.008;11.144;2022-09-13T10:52:20;5.13;;;1.60;;
45642;SDS011;31358;46.008;11.144;2022-09-13T10:54:47;4.68;;;1.73;;
45642;SDS011;31358;46.008;11.144;2022-09-13T10:59:57;4.53;;;1.20;;
45642;SDS011;31358;46.008;11.144;2022-09-13T11:13:43;7.50;;;1.88;;
45642;SDS011;31358;46.008;11.144;2022-09-13T11:35:43;3.10;;;1.50;;
45642;SDS011;31358;46.008;11.144;2022-09-13T11:44:14;3.05;;;1.85;;
45642;SDS011;31358;46.008;11.144;2022-09-13T11:58:09;3.55;;;1.77;;
45642;SDS011;31358;46.008;11.144;2022-09-13T12:00:36;7.50;;;1.73;;
45642;SDS011;31358;46.008;11.144;2022-09-13T12:05:38;2.45;;;1.30;;
45642;SDS011;31358;46.008;11.144;2022-09-13T12:08:31;8.55;;;1.80;;
45642;SDS011;31358;46.008;11.144;2022-09-13T12:11:20;2.70;;;1.40;;
45642;SDS011;31358;46.008;11.144;2022-09-13T12:13:55;7.18;;;1.50;;
45642;SDS011;31358;46.008;11.144;2022-09-13T12:16:25;3.35;;;1.60;;
45642;SDS011;31358;46.008;11.144;2022-09-13T12:19:00;3.75;;;1.30;;
45642;SDS011;31358;46.008;11.144;2022-09-13T12:21:46;3.35;;;1.65;;
45642;SDS011;31358;46.008;11.144;2022-09-13T12:27:05;2.95;;;1.42;;
45642;SDS011;31358;46.008;11.144;2022-09-13T12:29:56;3.90;;;1.77;;
45642;SDS011;31358;46.008;11.144;2022-09-13T12:32:31;2.55;;;1.50;;
45642;SDS011;31358;46.008;11.144;2022-09-13T12:35:01;2.97;;;1.63;;
45642;SDS011;31358;46.008;11.144;2022-09-13T13:02:18;11.85;;;3.58;;
45642;SDS011;31358;46.008;11.144;2022-09-13T13:05:25;4.13;;;1.40;;
45642;SDS011;31358;46.008;11.144;2022-09-13T13:07:57;2.90;;;1.42;;
45642;SDS011;31358;46.008;11.144;2022-09-13T13:10:30;5.95;;;2.03;;
45642;SDS011;31358;46.008;11.144;2022-09-13T13:13:14;4.47;;;1.33;;
45642;SDS011;31358;46.008;11.144;2022-09-13T13:23:29;5.18;;;2.28;;
45642;SDS011;31358;46.008;11.144;2022-09-13T13:34:23;8.20;;;2.47;;
45642;SDS011;31358;46.008;11.144;2022-09-13T13:36:53;6.05;;;1.90;;
45642;SDS011;31358;46.008;11.144;2022-09-13T13:41:52;5.00;;;2.30;;
45642;SDS011;31358;46.008;11.144;2022-09-13T13:46:54;7.07;;;2.03;;
45642;SDS011;31358;46.008;11.144;2022-09-13T14:00:24;3.30;;;1.83;;
45642;SDS011;31358;46.008;11.144;2022-09-13T14:09:10;6.55;;;2.42;;
45642;SDS011;31358;46.008;11.144;2022-09-13T14:20:15;6.15;;;1.85;;
45642;SDS011;31358;46.008;11.144;2022-09-13T14:22:43;3.65;;;1.50;;
45642;SDS011;31358;46.008;11.144;2022-09-13T14:27:44;5.15;;;1.80;;
45642;SDS011;31358;46.008;11.144;2022-09-13T14:32:44;2.38;;;1.33;;
45642;SDS011;31358;46.008;11.144;2022-09-13T14:37:52;4.00;;;1.80;;
45642;SDS011;31358;46.008;11.144;2022-09-13T14:40:24;5.03;;;1.55;;
45642;SDS011;31358;46.008;11.144;2022-09-13T14:42:50;4.15;;;1.80;;
45642;SDS011;31358;46.008;11.144;2022-09-13T14:45:25;7.90;;;1.90;;
45642;SDS011;31358;46.008;11.144;2022-09-13T14:48:00;4.90;;;1.63;;
45642;SDS011;31358;46.008;11.144;2022-09-13T14:50:32;6.97;;;2.80;;
45642;SDS011;31358;46.008;11.144;2022-09-13T14:53:05;6.43;;;2.45;;
45642;SDS011;31358;46.008;11.144;2022-09-13T14:55:36;7.93;;;1.88;;
45642;SDS011;31358;46.008;11.144;2022-09-13T14:58:12;5.88;;;1.90;;
45642;SDS011;31358;46.008;11.144;2022-09-13T15:01:04;5.32;;;1.80;;
45642;SDS011;31358;46.008;11.144;2022-09-13T15:03:32;5.90;;;2.15;;
45642;SDS011;31358;46.008;11.144;2022-09-13T15:05:59;6.35;;;1.88;;
45642;SDS011;31358;46.008;11.144;2022-09-13T15:10:59;5.53;;;2.08;;
45642;SDS011;31358;46.008;11.144;2022-09-13T15:13:27;3.95;;;2.10;;
45642;SDS011;31358;46.008;11.144;2022-09-13T15:15:53;7.13;;;2.00;;
45642;SDS011;31358;46.008;11.144;2022-09-13T15:23:27;5.25;;;2.10;;
45642;SDS011;31358;46.008;11.144;2022-09-13T15:26:08;4.38;;;1.88;;
45642;SDS011;31358;46.008;11.144;2022-09-13T15:28:57;8.25;;;2.28;;
45642;SDS011;31358;46.008;11.144;2022-09-13T15:31:25;4.05;;;1.73;;
45642;SDS011;31358;46.008;11.144;2022-09-13T15:36:46;6.72;;;2.15;;
45642;SDS011;31358;46.008;11.144;2022-09-13T15:39:17;5.88;;;1.98;;
45642;SDS011;31358;46.008;11.144;2022-09-13T15:41:51;8.25;;;2.13;;
45642;SDS011;31358;46.008;11.144;2022-09-13T15:44:22;6.93;;;1.90;;
45642;SDS011;31358;46.008;11.144;2022-09-13T15:46:49;5.72;;;2.08;;
45642;SDS011;31358;46.008;11.144;2022-09-13T15:49:17;7.38;;;2.17;;
45642;SDS011;31358;46.008;11.144;2022-09-13T15:51:45;7.50;;;2.05;;
45642;SDS011;31358;46.008;11.144;2022-09-13T15:54:15;4.28;;;2.00;;
45642;SDS011;31358;46.008;11.144;2022-09-13T15:56:43;6.05;;;1.92;;
45642;SDS011;31358;46.008;11.144;2022-09-13T15:59:16;7.38;;;1.98;;
45642;SDS011;31358;46.008;11.144;2022-09-13T16:01:43;6.82;;;2.22;;
45642;SDS011;31358;46.008;11.144;2022-09-13T16:04:10;4.75;;;2.15;;
45642;SDS011;31358;46.008;11.144;2022-09-13T16:06:36;3.30;;;1.90;;
45642;SDS011;31358;46.008;11.144;2022-09-13T16:09:16;7.80;;;2.30;;
45642;SDS011;31358;46.008;11.144;2022-09-13T16:11:46;3.97;;;1.75;;
45642;SDS011;31358;46.008;11.144;2022-09-13T16:14:14;8.63;;;2.63;;
45642;SDS011;31358;46.008;11.144;2022-09-13T16:16:40;7.53;;;2.60;;
45642;SDS011;31358;46.008;11.144;2022-09-13T16:19:08;4.93;;;2.55;;
45642;SDS011;31358;46.008;11.144;2022-09-13T16:21:41;4.47;;;1.83;;
45642;SDS011;31358;46.008;11.144;2022-09-13T16:24:07;5.72;;;2.00;;
45642;SDS011;31358;46.008;11.144;2022-09-13T16:26:32;8.48;;;2.50;;
45642;SDS011;31358;46.008;11.144;2022-09-13T16:28:58;5.82;;;2.10;;
45642;SDS011;31358;46.008;11.144;2022-09-13T16:31:24;4.68;;;2.25;;
45642;SDS011;31358;46.008;11.144;2022-09-13T16:33:50;6.07;;;2.55;;
45642;SDS011;31358;46.008;11.144;2022-09-13T16:36:16;4.75;;;2.45;;
45642;SDS011;31358;46.008;11.144;2022-09-13T16:38:41;7.85;;;1.65;;
45642;SDS011;31358;46.008;11.144;2022-09-13T16:41:07;5.50;;;2.40;;
45642;SDS011;31358;46.008;11.144;2022-09-13T16:43:33;4.93;;;2.22;;
45642;SDS011;31358;46.008;11.144;2022-09-13T16:45:59;6.03;;;1.92;;
45642;SDS011;31358;46.008;11.144;2022-09-13T16:48:30;5.57;;;2.45;;
45642;SDS011;31358;46.008;11.144;2022-09-13T16:51:03;5.85;;;2.55;;
45642;SDS011;31358;46.008;11.144;2022-09-13T16:53:33;3.40;;;1.98;;
45642;SDS011;31358;46.008;11.144;2022-09-13T16:56:08;6.05;;;2.25;;
45642;SDS011;31358;46.008;11.144;2022-09-13T16:58:36;4.95;;;2.30;;
45642;SDS011;31358;46.008;11.144;2022-09-13T17:01:06;6.82;;;1.95;;
45642;SDS011;31358;46.008;11.144;2022-09-13T17:03:33;6.38;;;2.75;;
45642;SDS011;31358;46.008;11.144;2022-09-13T17:06:10;4.55;;;2.35;;
45642;SDS011;31358;46.008;11.144;2022-09-13T17:08:38;6.10;;;2.15;;
45642;SDS011;31358;46.008;11.144;2022-09-13T17:11:05;6.97;;;2.60;;
45642;SDS011;31358;46.008;11.144;2022-09-13T17:13:34;6.18;;;2.63;;
45642;SDS011;31358;46.008;11.144;2022-09-13T17:16:01;6.75;;;2.90;;
45642;SDS011;31358;46.008;11.144;2022-09-13T17:18:26;3.60;;;1.88;;
45642;SDS011;31358;46.008;11.144;2022-09-13T17:20:52;5.47;;;2.33;;
45642;SDS011;31358;46.008;11.144;2022-09-13T17:23:18;3.90;;;2.20;;
45642;SDS011;31358;46.008;11.144;2022-09-13T17:25:47;4.90;;;2.70;;
45642;SDS011;31358;46.008;11.144;2022-09-13T17:28:14;5.28;;;2.22;;
45642;SDS011;31358;46.008;11.144;2022-09-13T17:30:41;5.35;;;2.58;;
45642;SDS011;31358;46.008;11.144;2022-09-13T17:33:07;3.70;;;2.05;;
45642;SDS011;31358;46.008;11.144;2022-09-13T17:35:34;5.03;;;2.13;;
45642;SDS011;31358;46.008;11.144;2022-09-13T17:38:00;5.63;;;2.28;;
45642;SDS011;31358;46.008;11.144;2022-09-13T17:40:27;3.95;;;2.53;;
45642;SDS011;31358;46.008;11.144;2022-09-13T17:42:54;5.07;;;2.47;;
45642;SDS011;31358;46.008;11.144;2022-09-13T17:45:23;5.53;;;2.50;;
45642;SDS011;31358;46.008;11.144;2022-09-13T17:47:52;7.47;;;2.40;;
45642;SDS011;31358;46.008;11.144;2022-09-13T17:50:19;5.63;;;2.92;;
45642;SDS011;31358;46.008;11.144;2022-09-13T17:52:44;7.03;;;3.13;;
45642;SDS011;31358;46.008;11.144;2022-09-13T17:55:10;6.38;;;2.83;;
45642;SDS011;31358;46.008;11.144;2022-09-13T17:57:37;9.02;;;3.33;;
45642;SDS011;31358;46.008;11.144;2022-09-13T18:00:04;8.15;;;3.15;;
45642;SDS011;31358;46.008;11.144;2022-09-13T18:02:32;5.75;;;2.72;;
45642;SDS011;31358;46.008;11.144;2022-09-13T18:04:58;5.53;;;2.35;;
45642;SDS011;31358;46.008;11.144;2022-09-13T18:07:24;8.30;;;2.85;;
45642;SDS011;31358;46.008;11.144;2022-09-13T18:09:49;5.47;;;2.97;;
45642;SDS011;31358;46.008;11.144;2022-09-13T18:12:15;5.32;;;2.60;;
45642;SDS011;31358;46.008;11.144;2022-09-13T18:14:41;4.72;;;2.80;;
45642;SDS011;31358;46.008;11.144;2022-09-13T18:17:06;5.15;;;2.97;;
45642;SDS011;31358;46.008;11.144;2022-09-13T18:19:40;7.25;;;2.67;;
45642;SDS011;31358;46.008;11.144;2022-09-13T18:22:09;5.70;;;2.65;;
45642;SDS011;31358;46.008;11.144;2022-09-13T18:24:34;4.80;;;2.55;;
45642;SDS011;31358;46.008;11.144;2022-09-13T18:27:01;4.97;;;3.00;;
45642;SDS011;31358;46.008;11.144;2022-09-13T18:29:27;7.65;;;3.72;;
45642;SDS011;31358;46.008;11.144;2022-09-13T18:31:55;4.45;;;2.35;;
45642;SDS011;31358;46.008;11.144;2022-09-13T18:34:21;5.13;;;2.83;;
45642;SDS011;31358;46.008;11.144;2022-09-13T18:36:47;5.68;;;2.90;;
45642;SDS011;31358;46.008;11.144;2022-09-13T18:39:16;5.78;;;2.85;;
45642;SDS011;31358;46.008;11.144;2022-09-13T18:41:44;6.10;;;2.42;;